createdAt,value
2024-03-24T00:01:25.842Z,8
2024-03-24T00:04:25.840Z,8
2024-03-24T00:07:25.857Z,8.1
2024-03-24T00:10:25.873Z,8.6
2024-03-24T00:13:25.849Z,8.2
2024-03-24T00:16:25.854Z,8.3
2024-03-24T00:19:25.866Z,8.8
2024-03-24T00:22:25.861Z,8.8
2024-03-24T00:25:25.884Z,8
2024-03-24T00:28:25.873Z,8.6
2024-03-24T00:31:25.892Z,9.4
2024-03-24T00:34:25.887Z,11.2
2024-03-24T00:37:25.889Z,9.4
2024-03-24T00:40:25.895Z,9.4
2024-03-24T00:43:25.888Z,9.2
2024-03-24T00:46:25.903Z,8.6
2024-03-24T00:49:25.899Z,9.2
2024-03-24T00:52:25.904Z,9.4
2024-03-24T00:55:25.915Z,9.4
2024-03-24T00:58:25.906Z,9.7
2024-03-24T01:01:25.905Z,9.7
2024-03-24T01:04:25.915Z,9.6
2024-03-24T01:07:25.923Z,11.2
2024-03-24T01:10:25.929Z,10.1
2024-03-24T01:13:25.933Z,9
2024-03-24T01:16:25.939Z,10.9
2024-03-24T01:19:27.063Z,9.9
2024-03-24T01:22:25.940Z,9.6
2024-03-24T01:25:25.957Z,10.8
2024-03-24T01:28:25.954Z,10
2024-03-24T01:31:25.957Z,10.9
2024-03-24T01:34:25.960Z,10.8
2024-03-24T01:37:25.958Z,10.5
2024-03-24T01:40:25.968Z,10
2024-03-24T01:43:25.981Z,9.2
2024-03-24T01:46:26.115Z,10.5
2024-03-24T01:49:25.983Z,10.7
2024-03-24T01:52:25.985Z,10.3
2024-03-24T01:55:25.999Z,10.7
2024-03-24T01:58:25.996Z,10.3
2024-03-24T02:01:26.008Z,10.6
2024-03-24T02:04:26.022Z,10.4
2024-03-24T02:07:26.016Z,10.4
2024-03-24T02:10:26.032Z,9.9
2024-03-24T02:13:26.021Z,9.7
2024-03-24T02:16:26.024Z,11.9
2024-03-24T02:19:26.026Z,10.7
2024-03-24T02:22:26.036Z,10
2024-03-24T02:25:26.046Z,9.5
2024-03-24T02:28:26.040Z,10.1
2024-03-24T02:31:26.047Z,11.3
2024-03-24T02:34:26.056Z,10.6
2024-03-24T02:37:26.059Z,10.6
2024-03-24T02:40:26.062Z,10.7
2024-03-24T02:43:26.067Z,12.4
2024-03-24T02:46:26.068Z,10.8
2024-03-24T02:49:26.081Z,11.4
2024-03-24T02:52:26.089Z,10.4
2024-03-24T02:55:26.085Z,10.4
2024-03-24T02:58:26.110Z,10.4
2024-03-24T03:01:26.091Z,11.2
2024-03-24T03:04:26.097Z,11
2024-03-24T03:07:26.118Z,10.1
2024-03-24T03:10:26.124Z,11
2024-03-24T03:13:26.124Z,11.3
2024-03-24T03:16:26.128Z,11.8
2024-03-24T03:19:26.127Z,10.4
2024-03-24T03:22:26.133Z,11.1
2024-03-24T03:25:26.148Z,10.6
2024-03-24T03:28:26.179Z,10.8
2024-03-24T03:31:26.154Z,10.3
2024-03-24T03:34:26.160Z,10.1
2024-03-24T03:37:26.195Z,10.8
2024-03-24T03:40:26.168Z,11.9
2024-03-24T03:43:26.171Z,11.9
2024-03-24T03:46:26.182Z,12.1
2024-03-24T03:49:26.178Z,11.2
2024-03-24T03:52:26.211Z,10.8
2024-03-24T03:55:26.195Z,10.1
2024-03-24T03:58:26.209Z,10.2
2024-03-24T04:01:26.216Z,9.5
2024-03-24T04:04:26.239Z,9.4
2024-03-24T04:07:26.210Z,9.6
2024-03-24T04:10:26.230Z,8.2
2024-03-24T04:13:26.226Z,9.5
2024-03-24T04:16:26.238Z,10.6
2024-03-24T04:19:26.246Z,9.3
2024-03-24T04:22:26.238Z,8
2024-03-24T04:25:26.250Z,8.5
2024-03-24T04:28:26.258Z,8.9
2024-03-24T04:31:26.263Z,7
2024-03-24T04:34:26.262Z,10.1
2024-03-24T04:37:26.266Z,8.1
2024-03-24T04:40:26.277Z,8.3
2024-03-24T04:43:26.279Z,7.8
2024-03-24T04:46:26.275Z,6.9
2024-03-24T04:49:26.286Z,7
2024-03-24T04:52:26.299Z,6.4
2024-03-24T04:55:26.298Z,8.1
2024-03-24T04:58:26.313Z,6.8
2024-03-24T05:01:26.314Z,8.3
2024-03-24T05:04:26.317Z,7.3
2024-03-24T05:07:26.320Z,7.2
2024-03-24T05:10:26.334Z,7.4
2024-03-24T05:13:26.335Z,6.3
2024-03-24T05:16:26.356Z,8
2024-03-24T05:19:26.359Z,6.9
2024-03-24T05:22:26.361Z,6.5
2024-03-24T05:25:26.352Z,7.8
2024-03-24T05:28:27.044Z,7.7
2024-03-24T05:31:26.358Z,8.3
2024-03-24T05:34:26.386Z,6.2
2024-03-24T05:37:26.375Z,6.4
2024-03-24T05:40:26.377Z,6.8
2024-03-24T05:43:26.384Z,6.9
2024-03-24T05:46:26.391Z,7.1
2024-03-24T05:49:26.396Z,6.4
2024-03-24T05:52:26.403Z,7.7
2024-03-24T05:55:26.404Z,6.6
2024-03-24T05:58:26.413Z,7
2024-03-24T06:01:26.422Z,7
2024-03-24T06:04:26.425Z,8
2024-03-24T06:07:26.425Z,8
2024-03-24T06:10:26.429Z,7.4
2024-03-24T06:13:26.438Z,8.8
2024-03-24T06:16:26.452Z,7.5
2024-03-24T06:19:26.454Z,7.8
2024-03-24T06:22:26.450Z,8
2024-03-24T06:25:26.453Z,9.4
2024-03-24T06:28:26.456Z,7.5
2024-03-24T06:31:26.477Z,7.9
2024-03-24T06:34:26.473Z,8.7
2024-03-24T06:37:26.467Z,8.1
2024-03-24T06:40:26.493Z,7.9
2024-03-24T06:43:26.483Z,9.3
2024-03-24T06:46:26.507Z,8
2024-03-24T06:49:26.491Z,7.9
2024-03-24T06:52:27.949Z,7
2024-03-24T06:55:26.510Z,7.8
2024-03-24T06:58:26.511Z,7.2
2024-03-24T07:01:26.520Z,7.1
2024-03-24T07:04:26.529Z,5.4
2024-03-24T07:07:26.530Z,6.4
2024-03-24T07:10:26.539Z,6.4
2024-03-24T07:13:26.555Z,5.9
2024-03-24T07:16:26.546Z,5.9
2024-03-24T07:19:26.555Z,5.8
2024-03-24T07:22:26.560Z,5.7
2024-03-24T07:25:26.570Z,6
2024-03-24T07:28:26.576Z,5.6
2024-03-24T07:31:26.574Z,5.5
2024-03-24T07:34:26.584Z,5.7
2024-03-24T07:37:26.591Z,7.1
2024-03-24T07:40:26.593Z,6.1
2024-03-24T07:43:26.603Z,6.5
2024-03-24T07:46:26.600Z,6.4
2024-03-24T07:49:26.611Z,7.1
2024-03-24T07:52:26.615Z,6.7
2024-03-24T07:55:26.632Z,6.5
2024-03-24T07:58:26.624Z,6.7
2024-03-24T08:01:26.648Z,6.9
2024-03-24T08:04:26.635Z,7.2
2024-03-24T08:07:26.654Z,7.6
2024-03-24T08:10:26.649Z,7.2
2024-03-24T08:13:27.628Z,7.3
2024-03-24T08:16:26.662Z,7.7
2024-03-24T08:19:26.671Z,6.5
2024-03-24T08:22:26.670Z,7
2024-03-24T08:25:26.692Z,8
2024-03-24T08:28:26.678Z,7.3
2024-03-24T08:31:26.685Z,6.9
2024-03-24T08:34:26.703Z,7
2024-03-24T08:37:26.710Z,7.6
2024-03-24T08:40:30.946Z,7.7
2024-03-24T08:43:26.753Z,6.9
2024-03-24T08:46:26.730Z,6
2024-03-24T08:49:26.711Z,7.1
2024-03-24T08:52:26.730Z,6.7
2024-03-24T08:55:26.764Z,6.3
2024-03-24T08:58:26.773Z,6.5
2024-03-24T09:01:26.767Z,8
2024-03-24T09:04:26.757Z,6
2024-03-24T09:07:26.772Z,6.9
2024-03-24T09:10:26.827Z,6.7
2024-03-24T09:13:26.759Z,6.3
2024-03-24T09:16:26.780Z,5.7
2024-03-24T09:19:26.786Z,7
2024-03-24T09:22:26.797Z,5.5
2024-03-24T09:25:26.804Z,4.9
2024-03-24T09:28:26.815Z,5.6
2024-03-24T09:31:26.837Z,5.2
2024-03-24T09:34:26.851Z,3.8
2024-03-24T09:37:26.866Z,4.1
2024-03-24T09:40:26.858Z,3
2024-03-24T09:43:26.833Z,3.5
2024-03-24T09:46:26.887Z,2.9
2024-03-24T09:49:26.846Z,2.9
2024-03-24T09:52:26.881Z,3.3
2024-03-24T09:55:26.901Z,2.9
2024-03-24T09:58:26.861Z,2.7
2024-03-24T10:01:26.878Z,3.3
2024-03-24T10:04:26.911Z,2.8
2024-03-24T10:07:26.884Z,3.9
2024-03-24T10:10:26.893Z,3.2
2024-03-24T10:13:26.894Z,3.3
2024-03-24T10:16:26.914Z,3.6
2024-03-24T10:19:26.903Z,3.5
2024-03-24T10:22:26.892Z,3.8
2024-03-24T10:25:26.899Z,3.5
2024-03-24T10:28:26.932Z,3.7
2024-03-24T10:31:26.919Z,4.2
2024-03-24T10:34:26.922Z,3.8
2024-03-24T10:37:26.987Z,4.1
2024-03-24T10:40:26.907Z,4.9
2024-03-24T10:43:26.926Z,4.4
2024-03-24T10:46:26.939Z,4.9
2024-03-24T10:49:26.930Z,5.6
2024-03-24T10:52:26.935Z,4.5
2024-03-24T10:55:26.945Z,4.9
2024-03-24T10:58:26.963Z,4.5
2024-03-24T11:01:26.953Z,4.5
2024-03-24T11:04:26.947Z,4.8
2024-03-24T11:07:26.948Z,5.5
2024-03-24T11:10:26.973Z,4.7
2024-03-24T11:13:26.974Z,5.4
2024-03-24T11:16:26.971Z,5.6
2024-03-24T11:19:26.993Z,5.9
2024-03-24T11:22:26.986Z,5.3
2024-03-24T11:25:26.970Z,6.7
2024-03-24T11:28:26.977Z,4.7
2024-03-24T11:31:26.985Z,6.5
2024-03-24T11:34:26.981Z,7.3
2024-03-24T11:37:27.013Z,6
2024-03-24T11:40:27.012Z,4.3
2024-03-24T11:43:27.001Z,6.7
2024-03-24T11:46:27.029Z,4.8
2024-03-24T11:49:27.011Z,4.2
2024-03-24T11:52:27.038Z,5.5
2024-03-24T11:55:27.071Z,5.3
2024-03-24T11:58:27.076Z,4.5
2024-03-24T12:01:27.085Z,6.2
2024-03-24T12:04:27.049Z,5.1
2024-03-24T12:07:27.050Z,5.8
2024-03-24T12:10:27.059Z,4.5
2024-03-24T12:13:27.079Z,4
2024-03-24T12:16:27.078Z,6.1
2024-03-24T12:19:27.089Z,4.5
2024-03-24T12:22:27.094Z,5.2
2024-03-24T12:25:27.078Z,4.6
2024-03-24T12:28:27.085Z,5.9
2024-03-24T12:31:27.096Z,5.5
2024-03-24T12:34:27.111Z,4.4
2024-03-24T12:37:27.101Z,4.8
2024-03-24T12:40:27.123Z,7.1
2024-03-24T12:43:27.132Z,4.5
2024-03-24T12:46:27.121Z,4.8
2024-03-24T12:49:34.135Z,5.5
2024-03-24T12:52:27.155Z,4.3
2024-03-24T12:55:27.143Z,5.4
2024-03-24T12:58:27.151Z,4.6
2024-03-24T13:01:27.161Z,6.4
2024-03-24T13:04:27.200Z,4.8
2024-03-24T13:07:27.174Z,4.1
2024-03-24T13:10:27.218Z,4
2024-03-24T13:13:27.162Z,7.2
2024-03-24T13:16:27.191Z,5.8
2024-03-24T13:19:27.180Z,5.7
2024-03-24T13:22:27.262Z,7.1
2024-03-24T13:25:27.176Z,6.1
2024-03-24T13:28:27.190Z,6.4
2024-03-24T13:31:27.186Z,7.3
2024-03-24T13:34:27.202Z,6.5
2024-03-24T13:37:27.215Z,5.7
2024-03-24T13:40:27.205Z,6.4
2024-03-24T13:43:27.209Z,5.9
2024-03-24T13:46:27.220Z,6.5
2024-03-24T13:49:27.220Z,5.9
2024-03-24T13:52:27.242Z,7
2024-03-24T13:55:27.235Z,6.2
2024-03-24T13:58:27.241Z,4.2
2024-03-24T14:01:27.248Z,4.9
2024-03-24T14:04:27.254Z,5.7
2024-03-24T14:07:27.258Z,5.6
2024-03-24T14:10:27.269Z,5.7
2024-03-24T14:13:27.265Z,5.9
2024-03-24T14:16:27.270Z,5.5
2024-03-24T14:19:27.281Z,4.9
2024-03-24T14:22:27.283Z,4.6
2024-03-24T14:25:27.285Z,4.9
2024-03-24T14:28:27.288Z,4.8
2024-03-24T14:31:27.299Z,4.4
2024-03-24T14:34:27.303Z,4.3
2024-03-24T14:37:27.296Z,4.7
2024-03-24T14:40:27.301Z,4.4
2024-03-24T14:43:27.312Z,4.6
2024-03-24T14:46:27.309Z,3.9
2024-03-24T14:49:27.322Z,5.4
2024-03-24T14:52:27.323Z,4.5
2024-03-24T14:55:27.336Z,5.1
2024-03-24T14:58:27.347Z,4.5
2024-03-24T15:01:29.929Z,4.6
2024-03-24T15:04:27.373Z,4.3
2024-03-24T15:07:27.441Z,5.3
2024-03-24T15:10:27.385Z,3.6
2024-03-24T15:13:27.379Z,4.5
2024-03-24T15:16:27.395Z,4.4
2024-03-24T15:19:27.402Z,5.2
2024-03-24T15:22:27.404Z,4.9
2024-03-24T15:25:27.415Z,5.7
2024-03-24T15:28:27.421Z,5
2024-03-24T15:31:27.421Z,4.7
2024-03-24T15:34:27.433Z,4.7
2024-03-24T15:37:27.454Z,6.7
2024-03-24T15:40:27.454Z,4.6
2024-03-24T15:43:27.487Z,5.3
2024-03-24T15:46:27.471Z,6.3
2024-03-24T15:49:27.473Z,3.9
2024-03-24T15:52:27.483Z,4.4
2024-03-24T15:55:27.483Z,3.4
2024-03-24T15:58:27.492Z,4.3
2024-03-24T16:01:27.510Z,4.8
2024-03-24T16:04:27.507Z,7.6
2024-03-24T16:07:27.522Z,6.2
2024-03-24T16:10:27.528Z,4.5
2024-03-24T16:13:27.527Z,4
2024-03-24T16:16:27.539Z,3.9
2024-03-24T16:19:27.555Z,4.9
2024-03-24T16:22:27.540Z,3.9
2024-03-24T16:25:27.562Z,3.2
2024-03-24T16:28:27.548Z,3.4
2024-03-24T16:31:27.548Z,3.9
2024-03-24T16:34:27.551Z,4.6
2024-03-24T16:37:27.553Z,4.5
2024-03-24T16:40:27.562Z,3.6
2024-03-24T16:43:27.554Z,3.2
2024-03-24T16:46:27.566Z,3.9
2024-03-24T16:49:27.565Z,2.3
2024-03-24T16:52:27.563Z,1.9
2024-03-24T16:55:27.580Z,2.8
2024-03-24T16:58:27.577Z,1.9
2024-03-24T17:01:27.579Z,2.5
2024-03-24T17:04:27.588Z,4.3
2024-03-24T17:07:27.617Z,2.9
2024-03-24T17:10:27.616Z,2.6
2024-03-24T17:13:27.627Z,3.1
2024-03-24T17:16:27.616Z,3
2024-03-24T17:19:27.616Z,3.1
2024-03-24T17:22:27.626Z,2.9
2024-03-24T17:25:27.622Z,2.5
2024-03-24T17:28:27.631Z,2.9
2024-03-24T17:31:27.628Z,3
2024-03-24T17:34:27.626Z,2.7
2024-03-24T17:37:27.643Z,2.6
2024-03-24T17:40:27.630Z,2.6
2024-03-24T17:43:27.681Z,2.5
2024-03-24T17:46:27.644Z,2.3
2024-03-24T17:49:27.648Z,3
2024-03-24T17:52:27.656Z,2.8
2024-03-24T17:55:27.637Z,3.1
2024-03-24T17:58:27.665Z,3.3
2024-03-24T18:01:27.641Z,3.3
2024-03-24T18:04:27.651Z,3.5
2024-03-24T18:07:27.705Z,3.3
2024-03-24T18:10:27.761Z,4
2024-03-24T18:13:27.667Z,3.6
2024-03-24T18:16:27.659Z,4.7
2024-03-24T18:19:27.651Z,5
2024-03-24T18:22:27.659Z,5.3
2024-03-24T18:25:27.672Z,5.9
2024-03-24T18:28:27.685Z,4.9
2024-03-24T18:31:27.920Z,5.9
2024-03-24T18:34:27.675Z,6.8
2024-03-24T18:37:27.682Z,8.8
2024-03-24T18:40:27.692Z,6.4
2024-03-24T18:43:27.697Z,6.1
2024-03-24T18:46:27.684Z,6.3
2024-03-24T18:49:27.693Z,7.5
2024-03-24T18:52:27.681Z,7.1
2024-03-24T18:55:27.710Z,8
2024-03-24T18:58:27.706Z,9.5
2024-03-24T19:01:27.701Z,7.6
2024-03-24T19:04:27.716Z,7.5
2024-03-24T19:07:27.715Z,6.8
2024-03-24T19:10:27.718Z,7.4
2024-03-24T19:13:27.718Z,7.4
2024-03-24T19:16:27.702Z,6
2024-03-24T19:19:27.704Z,6.4
2024-03-24T19:22:27.715Z,4.8
2024-03-24T19:25:31.184Z,6.1
2024-03-24T19:28:27.739Z,6.7
2024-03-24T19:31:27.719Z,6.2
2024-03-24T19:34:27.726Z,6.6
2024-03-24T19:37:27.725Z,6.9
2024-03-24T19:40:27.739Z,7.4
2024-03-24T19:43:27.741Z,6.3
2024-03-24T19:46:27.733Z,6.8
2024-03-24T19:49:27.746Z,6.6
2024-03-24T19:52:27.746Z,6.6
2024-03-24T19:55:27.746Z,6.6
2024-03-24T19:58:27.753Z,4.2
2024-03-24T20:01:27.744Z,3.6
2024-03-24T20:04:27.743Z,4.2
2024-03-24T20:07:27.748Z,5.3
2024-03-24T20:10:27.767Z,4.6
2024-03-24T20:13:27.770Z,4.4
2024-03-24T20:16:27.759Z,4.2
2024-03-24T20:19:27.767Z,5.4
2024-03-24T20:22:27.831Z,5.3
2024-03-24T20:25:27.781Z,5.2
2024-03-24T20:28:27.789Z,4.5
2024-03-24T20:31:27.787Z,5.2
2024-03-24T20:34:27.807Z,4.8
2024-03-24T20:37:27.794Z,4.6
2024-03-24T20:40:27.785Z,5.4
2024-03-24T20:43:27.807Z,5.2
2024-03-24T20:46:27.805Z,6.5
2024-03-24T20:49:27.798Z,7.1
2024-03-24T20:52:27.807Z,7
2024-03-24T20:55:27.807Z,6.7
2024-03-24T20:58:27.818Z,7.6
2024-03-24T21:01:27.810Z,6.5
2024-03-24T21:04:27.817Z,7.2
2024-03-24T21:07:27.839Z,8.3
2024-03-24T21:10:27.827Z,8.8
2024-03-24T21:13:27.848Z,8.8
2024-03-24T21:16:27.833Z,7.9
2024-03-24T21:19:27.833Z,8.8
2024-03-24T21:22:27.852Z,8.4
2024-03-24T21:25:27.848Z,8.3
2024-03-24T21:28:27.849Z,7.8
2024-03-24T21:31:27.844Z,8
2024-03-24T21:34:27.861Z,9.5
2024-03-24T21:37:27.850Z,8.5
2024-03-24T21:40:27.872Z,6
2024-03-24T21:43:27.876Z,6.7
2024-03-24T21:46:27.867Z,7.9
2024-03-24T21:49:27.864Z,6.5
2024-03-24T21:52:27.880Z,6.8
2024-03-24T21:55:27.883Z,7.5
2024-03-24T21:58:27.914Z,5.2
2024-03-24T22:01:27.888Z,5.8
2024-03-24T22:04:27.894Z,6.1
2024-03-24T22:07:42.529Z,5.2
2024-03-24T22:10:27.898Z,5.9
2024-03-24T22:13:27.910Z,6.4
2024-03-24T22:16:27.907Z,5.7
2024-03-24T22:19:27.909Z,6.7
2024-03-24T22:22:27.918Z,6.6
2024-03-24T22:25:27.915Z,6.3
2024-03-24T22:28:28.235Z,5.7
2024-03-24T22:31:27.930Z,6.7
2024-03-24T22:34:27.924Z,6.3
2024-03-24T22:37:27.928Z,5.8
2024-03-24T22:40:27.932Z,5.7
2024-03-24T22:43:27.949Z,5.5
2024-03-24T22:46:27.936Z,6.3
2024-03-24T22:49:27.947Z,7.9
2024-03-24T22:52:27.960Z,8.1
2024-03-24T22:55:27.945Z,7.3
2024-03-24T22:58:27.962Z,6.8
2024-03-24T23:01:27.965Z,8.1
2024-03-24T23:04:27.966Z,6.3
2024-03-24T23:07:27.971Z,7.7
2024-03-24T23:10:27.979Z,7.5
2024-03-24T23:13:27.988Z,6.1
2024-03-24T23:16:27.991Z,7.3
2024-03-24T23:19:27.987Z,6.1
2024-03-24T23:22:28.058Z,6.8
2024-03-24T23:25:27.991Z,6.4
2024-03-24T23:28:28.010Z,7
2024-03-24T23:31:28.000Z,6.6
2024-03-24T23:34:28.009Z,8.7
2024-03-24T23:37:28.014Z,6.2
2024-03-24T23:40:28.018Z,8
2024-03-24T23:43:28.025Z,7.2
2024-03-24T23:46:28.017Z,7.8
2024-03-24T23:49:28.036Z,7.7
2024-03-24T23:52:28.715Z,5.9
2024-03-24T23:55:28.031Z,6
2024-03-24T23:58:28.048Z,5.7
